createdAt,value
2022-11-02T00:01:30.841Z,1.50
2022-11-02T00:03:57.409Z,1.50
2022-11-02T00:06:23.879Z,1.80
2022-11-02T00:08:50.313Z,1.60
2022-11-02T00:11:16.717Z,1.57
2022-11-02T00:13:43.239Z,1.77
2022-11-02T00:16:14.577Z,1.60
2022-11-02T00:18:43.981Z,1.47
2022-11-02T00:21:11.304Z,1.70
2022-11-02T00:23:38.177Z,1.50
2022-11-02T00:26:04.716Z,2.00
2022-11-02T00:28:31.314Z,2.33
2022-11-02T00:30:57.873Z,3.07
2022-11-02T00:33:26.139Z,1.47
2022-11-02T00:35:54.183Z,1.67
2022-11-02T00:38:20.598Z,2.10
2022-11-02T00:40:47.028Z,2.47
2022-11-02T00:43:13.532Z,3.40
2022-11-02T00:45:40.020Z,2.63
2022-11-02T00:48:06.978Z,2.10
2022-11-02T00:50:33.700Z,2.10
2022-11-02T00:53:00.182Z,1.57
2022-11-02T00:55:27.248Z,1.70
2022-11-02T00:57:58.758Z,2.10
2022-11-02T01:00:25.189Z,1.87
2022-11-02T01:02:51.686Z,1.87
2022-11-02T01:05:18.288Z,1.30
2022-11-02T01:07:46.531Z,1.60
2022-11-02T01:10:13.018Z,1.70
2022-11-02T01:12:40.237Z,2.00
2022-11-02T01:15:08.351Z,1.73
2022-11-02T01:17:35.283Z,1.50
2022-11-02T01:20:05.536Z,1.60
2022-11-02T01:22:32.182Z,1.80
2022-11-02T01:24:58.605Z,1.60
2022-11-02T01:27:26.215Z,1.90
2022-11-02T01:29:52.712Z,1.40
2022-11-02T01:32:19.152Z,2.33
2022-11-02T01:34:45.571Z,2.13
2022-11-02T01:37:12.073Z,2.43
2022-11-02T01:39:38.536Z,1.67
2022-11-02T01:42:16.917Z,1.90
2022-11-02T01:44:44.577Z,2.27
2022-11-02T01:47:40.531Z,1.93
2022-11-02T01:50:12.974Z,1.80
2022-11-02T01:52:41.253Z,1.90
2022-11-02T01:55:14.779Z,1.53
2022-11-02T01:57:45.672Z,2.03
2022-11-02T02:00:15.286Z,1.70
2022-11-02T02:03:00.598Z,2.10
2022-11-02T02:05:29.596Z,1.80
2022-11-02T02:07:56.414Z,1.90
2022-11-02T02:10:22.961Z,2.00
2022-11-02T02:12:49.876Z,2.30
2022-11-02T02:15:24.194Z,1.50
2022-11-02T02:18:01.534Z,1.73
2022-11-02T02:20:42.183Z,1.70
2022-11-02T02:23:24.841Z,2.07
2022-11-02T02:26:20.981Z,1.67
2022-11-02T02:29:00.171Z,1.70
2022-11-02T02:31:55.691Z,2.00
2022-11-02T02:34:34.419Z,1.73
2022-11-02T02:37:15.221Z,2.10
2022-11-02T02:40:00.696Z,1.60
2022-11-02T02:42:36.309Z,2.13
2022-11-02T02:45:19.156Z,1.70
2022-11-02T02:47:54.798Z,1.70
2022-11-02T02:50:26.019Z,1.43
2022-11-02T02:52:55.280Z,1.50
2022-11-02T02:55:31.393Z,1.40
2022-11-02T02:58:02.696Z,1.90
2022-11-02T03:00:31.438Z,1.40
2022-11-02T03:03:01.632Z,1.37
2022-11-02T03:05:30.289Z,1.40
2022-11-02T03:08:03.315Z,1.57
2022-11-02T03:10:53.419Z,1.90
2022-11-02T03:13:41.857Z,2.90
2022-11-02T03:16:26.836Z,1.80
2022-11-02T03:19:05.028Z,1.50
2022-11-02T03:21:44.413Z,1.50
2022-11-02T03:24:19.685Z,1.83
2022-11-02T03:27:11.691Z,1.40
2022-11-02T03:29:56.570Z,1.73
2022-11-02T03:32:41.481Z,1.23
2022-11-02T03:35:17.098Z,1.50
2022-11-02T03:37:58.638Z,1.57
2022-11-02T03:40:31.693Z,1.90
2022-11-02T03:43:00.698Z,1.67
2022-11-02T03:45:37.189Z,1.40
2022-11-02T03:48:08.168Z,1.73
2022-11-02T03:50:38.468Z,1.63
2022-11-02T03:53:18.690Z,1.87
2022-11-02T03:55:50.914Z,1.47
2022-11-02T03:58:17.552Z,1.63
2022-11-02T04:00:54.099Z,1.40
2022-11-02T04:03:23.448Z,1.80
2022-11-02T04:05:50.552Z,1.50
2022-11-02T04:08:39.106Z,1.73
2022-11-02T04:11:27.374Z,1.47
2022-11-02T04:14:16.829Z,1.70
2022-11-02T04:16:45.025Z,1.70
2022-11-02T04:19:29.153Z,1.50
2022-11-02T04:22:25.660Z,1.60
2022-11-02T04:25:15.680Z,1.60
2022-11-02T04:27:50.161Z,1.50
2022-11-02T04:30:21.327Z,1.50
2022-11-02T04:33:08.032Z,1.77
2022-11-02T04:35:40.978Z,2.33
2022-11-02T04:38:27.613Z,1.53
2022-11-02T04:41:16.129Z,2.03
2022-11-02T04:43:44.798Z,1.47
2022-11-02T04:46:13.456Z,1.93
2022-11-02T04:48:39.987Z,1.80
2022-11-02T04:51:06.752Z,1.50
2022-11-02T04:53:33.330Z,1.57
2022-11-02T04:55:59.742Z,1.73
2022-11-02T04:58:26.276Z,1.50
2022-11-02T05:00:53.149Z,1.80
2022-11-02T05:03:20.166Z,1.87
2022-11-02T05:05:46.681Z,1.60
2022-11-02T05:08:13.184Z,1.73
2022-11-02T05:10:39.794Z,1.77
2022-11-02T05:13:06.397Z,1.83
2022-11-02T05:15:39.121Z,1.77
2022-11-02T05:18:07.152Z,1.97
2022-11-02T05:20:35.100Z,1.77
2022-11-02T05:23:01.831Z,1.70
2022-11-02T05:25:30.290Z,2.10
2022-11-02T05:27:57.799Z,1.80
2022-11-02T05:30:24.522Z,2.17
2022-11-02T05:32:57.517Z,1.97
2022-11-02T05:35:24.092Z,1.70
2022-11-02T05:37:50.754Z,1.70
2022-11-02T05:40:17.816Z,1.80
2022-11-02T05:42:44.260Z,1.80
2022-11-02T05:45:10.805Z,1.70
2022-11-02T05:47:37.211Z,1.60
2022-11-02T05:50:04.121Z,1.40
2022-11-02T05:52:30.523Z,1.50
2022-11-02T05:54:56.952Z,1.70
2022-11-02T05:57:23.373Z,2.10
2022-11-02T05:59:49.766Z,1.73
2022-11-02T06:02:16.295Z,2.13
2022-11-02T06:04:42.793Z,1.93
2022-11-02T06:07:09.277Z,1.40
2022-11-02T06:09:35.688Z,1.70
2022-11-02T06:12:02.169Z,2.00
2022-11-02T06:14:28.682Z,1.43
2022-11-02T06:16:55.089Z,1.87
2022-11-02T06:19:21.510Z,2.20
2022-11-02T06:21:48.634Z,1.77
2022-11-02T06:24:15.273Z,1.87
2022-11-02T06:26:41.774Z,1.50
2022-11-02T06:29:08.308Z,1.70
2022-11-02T06:31:34.833Z,2.10
2022-11-02T06:34:01.340Z,1.97
2022-11-02T06:36:27.797Z,1.93
2022-11-02T06:38:54.249Z,1.40
2022-11-02T06:41:20.695Z,1.67
2022-11-02T06:43:47.085Z,1.50
2022-11-02T06:46:13.571Z,1.67
2022-11-02T06:48:40.062Z,1.60
2022-11-02T06:51:06.596Z,1.73
2022-11-02T06:53:33.415Z,1.60
2022-11-02T06:56:00.080Z,1.70
2022-11-02T06:58:27.370Z,2.00
2022-11-02T07:00:59.089Z,2.20
2022-11-02T07:03:26.141Z,1.30
2022-11-02T07:05:53.193Z,2.00
2022-11-02T07:08:20.456Z,2.00
2022-11-02T07:10:47.262Z,1.80
2022-11-02T07:13:13.687Z,2.33
2022-11-02T07:15:40.443Z,1.43
2022-11-02T07:18:08.233Z,1.73
2022-11-02T07:20:35.253Z,1.70
2022-11-02T07:23:02.630Z,2.10
2022-11-02T07:25:31.492Z,1.67
2022-11-02T07:27:59.871Z,1.50
2022-11-02T07:30:27.399Z,1.50
2022-11-02T07:32:53.884Z,1.70
2022-11-02T07:35:20.301Z,1.57
2022-11-02T07:37:58.793Z,2.40
2022-11-02T07:40:25.700Z,1.83
2022-11-02T07:42:53.929Z,2.07
2022-11-02T07:45:29.355Z,2.03
2022-11-02T07:47:55.952Z,2.70
2022-11-02T07:50:24.609Z,2.67
2022-11-02T07:52:56.107Z,1.77
2022-11-02T07:55:27.881Z,1.90
2022-11-02T07:58:10.483Z,2.17
2022-11-02T08:00:39.407Z,1.97
2022-11-02T08:03:08.407Z,1.77
2022-11-02T08:05:37.862Z,1.93
2022-11-02T08:08:07.124Z,2.33
2022-11-02T08:10:39.026Z,2.05
2022-11-02T08:13:08.658Z,2.20
2022-11-02T08:15:35.173Z,2.08
2022-11-02T08:18:04.693Z,1.92
2022-11-02T08:20:35.565Z,2.08
2022-11-02T08:23:02.388Z,2.17
2022-11-02T08:25:29.148Z,1.80
2022-11-02T08:27:59.693Z,2.22
2022-11-02T08:30:28.345Z,1.70
2022-11-02T08:32:56.984Z,2.22
2022-11-02T08:35:24.109Z,1.60
2022-11-02T08:37:55.026Z,1.88
2022-11-02T08:40:21.718Z,1.75
2022-11-02T08:42:48.350Z,2.35
2022-11-02T08:45:15.147Z,1.77
2022-11-02T08:47:42.179Z,1.73
2022-11-02T08:50:10.272Z,1.88
2022-11-02T08:52:40.515Z,1.98
2022-11-02T08:55:07.832Z,1.63
2022-11-02T08:57:47.939Z,1.90
2022-11-02T09:00:15.051Z,1.98
2022-11-02T09:02:42.308Z,1.75
2022-11-02T09:05:09.019Z,1.80
2022-11-02T09:07:35.419Z,1.63
2022-11-02T09:10:01.925Z,2.50
2022-11-02T09:12:28.459Z,2.28
2022-11-02T09:14:54.889Z,2.10
2022-11-02T09:17:21.400Z,1.95
2022-11-02T09:19:47.925Z,2.83
2022-11-02T09:22:14.368Z,1.98
2022-11-02T09:24:40.785Z,1.65
2022-11-02T09:27:07.186Z,1.73
2022-11-02T09:29:33.939Z,1.52
2022-11-02T09:32:00.299Z,2.10
2022-11-02T09:34:26.769Z,2.50
2022-11-02T09:36:53.251Z,1.73
2022-11-02T09:39:20.581Z,1.90
2022-11-02T09:41:59.656Z,1.92
2022-11-02T09:44:41.740Z,1.70
2022-11-02T09:48:03.070Z,1.38
2022-11-02T09:50:02.150Z,1.60
2022-11-02T09:52:35.576Z,1.30
2022-11-02T09:55:10.120Z,2.08
2022-11-02T09:57:38.361Z,1.90
2022-11-02T10:00:05.689Z,1.65
2022-11-02T10:02:35.615Z,1.88
2022-11-02T10:05:26.755Z,1.65
2022-11-02T10:08:11.444Z,1.90
2022-11-02T10:10:46.615Z,1.75
2022-11-02T10:13:25.361Z,1.75
2022-11-02T10:15:56.388Z,2.15
2022-11-02T10:18:28.364Z,1.80
2022-11-02T10:20:59.705Z,2.63
2022-11-02T10:23:33.366Z,2.13
2022-11-02T10:26:01.448Z,1.73
2022-11-02T10:28:34.525Z,1.67
2022-11-02T10:31:02.500Z,2.10
2022-11-02T10:33:30.900Z,1.70
2022-11-02T10:36:16.998Z,1.58
2022-11-02T10:39:20.291Z,1.63
2022-11-02T10:41:52.645Z,1.90
2022-11-02T10:45:01.982Z,1.75
2022-11-02T10:47:40.035Z,1.70
2022-11-02T10:50:35.100Z,1.60
2022-11-02T10:53:27.490Z,1.92
2022-11-02T10:56:04.017Z,1.77
2022-11-02T10:58:33.801Z,1.45
2022-11-02T11:01:09.650Z,1.63
2022-11-02T11:04:22.495Z,1.48
2022-11-02T11:06:49.041Z,1.60
2022-11-02T11:09:55.775Z,1.60
2022-11-02T11:12:28.874Z,1.20
2022-11-02T11:20:35.481Z,1.80
2022-11-02T11:23:20.407Z,1.88
2022-11-02T11:26:11.956Z,1.50
2022-11-02T11:28:56.158Z,1.98
2022-11-02T11:31:23.377Z,1.70
2022-11-02T11:33:58.356Z,1.90
2022-11-02T11:36:29.276Z,1.75
2022-11-02T11:39:00.155Z,2.13
2022-11-02T11:41:28.245Z,1.95
2022-11-02T11:43:55.443Z,1.65
2022-11-02T11:46:22.110Z,1.35
2022-11-02T11:48:53.641Z,1.73
2022-11-02T11:51:28.339Z,1.67
2022-11-02T11:54:30.809Z,1.80
2022-11-02T11:57:17.215Z,1.67
2022-11-02T11:59:43.600Z,1.73
2022-11-02T12:02:39.383Z,1.42
2022-11-02T12:05:17.029Z,1.50
2022-11-02T12:07:56.845Z,1.20
2022-11-02T12:10:35.588Z,2.47
2022-11-02T12:13:36.771Z,2.17
2022-11-02T12:16:14.604Z,1.90
2022-11-02T12:22:08.500Z,1.88
2022-11-02T12:25:06.669Z,1.60
2022-11-02T12:27:51.892Z,1.20
2022-11-02T12:30:21.284Z,1.67
2022-11-02T12:32:56.665Z,1.38
2022-11-02T12:35:32.909Z,1.30
2022-11-02T12:38:21.244Z,1.25
2022-11-02T12:41:04.858Z,1.55
2022-11-02T12:43:53.620Z,1.38
2022-11-02T12:46:29.980Z,1.27
2022-11-02T12:49:11.365Z,1.20
2022-11-02T12:52:04.625Z,1.23
2022-11-02T12:54:47.426Z,1.52
2022-11-02T12:57:24.137Z,1.40
2022-11-02T12:59:55.432Z,1.65
2022-11-02T13:02:29.675Z,2.47
2022-11-02T13:05:09.321Z,1.50
2022-11-02T13:08:00.497Z,1.83
2022-11-02T13:10:33.293Z,1.58
2022-11-02T13:13:03.062Z,1.30
2022-11-02T13:15:34.416Z,1.63
2022-11-02T13:18:07.005Z,1.83
2022-11-02T13:20:40.685Z,1.23
2022-11-02T13:23:18.050Z,1.27
2022-11-02T13:25:50.058Z,1.80
2022-11-02T13:28:24.526Z,1.90
2022-11-02T13:30:52.080Z,1.67
2022-11-02T13:33:29.953Z,1.52
2022-11-02T13:35:56.393Z,1.20
2022-11-02T13:38:32.073Z,1.40
2022-11-02T13:41:07.920Z,1.17
2022-11-02T13:44:03.036Z,1.55
2022-11-02T13:46:58.566Z,1.48
2022-11-02T13:49:50.244Z,1.13
2022-11-02T13:52:24.681Z,1.30
2022-11-02T13:55:01.016Z,1.23
2022-11-02T13:57:27.479Z,1.05
2022-11-02T13:59:54.236Z,1.25
2022-11-02T14:02:23.067Z,1.35
2022-11-02T14:04:50.325Z,1.40
2022-11-02T14:07:35.731Z,1.35
2022-11-02T14:10:13.502Z,1.45
2022-11-02T14:12:44.986Z,1.58
2022-11-02T14:15:14.303Z,1.45
2022-11-02T14:17:52.694Z,1.20
2022-11-02T14:20:39.592Z,1.88
2022-11-02T14:23:08.978Z,1.15
2022-11-02T14:25:50.259Z,1.45
2022-11-02T14:28:22.724Z,1.98
2022-11-02T14:30:58.578Z,2.40
2022-11-02T14:34:04.677Z,1.50
2022-11-02T14:36:48.100Z,1.58
2022-11-02T14:39:35.581Z,1.73
2022-11-02T14:42:36.893Z,1.35
2022-11-02T14:45:17.325Z,1.35
2022-11-02T14:47:44.081Z,1.40
2022-11-02T14:50:21.403Z,2.25
2022-11-02T14:53:07.357Z,2.65
2022-11-02T14:55:37.800Z,1.50
2022-11-02T14:58:10.823Z,1.10
2022-11-02T15:00:49.758Z,1.27
2022-11-02T15:03:25.263Z,1.45
2022-11-02T15:06:26.881Z,1.58
2022-11-02T15:08:59.744Z,1.67
2022-11-02T15:11:49.559Z,1.42
2022-11-02T15:14:42.501Z,1.65
2022-11-02T15:17:15.128Z,2.13
2022-11-02T15:19:46.289Z,2.85
2022-11-02T15:22:32.334Z,2.58
2022-11-02T15:25:04.070Z,2.63
2022-11-02T15:27:31.063Z,2.00
2022-11-02T15:29:58.775Z,2.03
2022-11-02T15:32:28.680Z,2.10
2022-11-02T15:34:56.982Z,2.23
2022-11-02T15:37:28.822Z,2.50
2022-11-02T15:40:01.057Z,2.17
2022-11-02T15:42:45.137Z,3.03
2022-11-02T15:45:48.808Z,2.42
2022-11-02T15:48:38.232Z,1.95
2022-11-02T15:51:13.734Z,2.30
2022-11-02T15:53:55.470Z,1.33
2022-11-02T15:56:46.869Z,1.67
2022-11-02T15:59:37.125Z,1.40
2022-11-02T16:02:17.997Z,2.60
2022-11-02T16:04:47.962Z,2.40
2022-11-02T16:07:17.271Z,1.90
2022-11-02T16:09:46.414Z,1.53
2022-11-02T16:12:21.542Z,1.60
2022-11-02T16:15:11.252Z,1.40
2022-11-02T16:17:37.852Z,1.50
2022-11-02T16:20:27.198Z,1.40
2022-11-02T16:22:59.398Z,1.00
2022-11-02T16:25:39.702Z,1.10
2022-11-02T16:28:26.860Z,1.20
2022-11-02T16:31:18.078Z,1.63
2022-11-02T16:33:56.119Z,1.23
2022-11-02T16:36:25.649Z,3.67
2022-11-02T16:39:03.321Z,12.63
2022-11-02T16:41:32.748Z,12.53
2022-11-02T16:44:07.509Z,8.43
2022-11-02T16:46:47.108Z,7.40
2022-11-02T16:49:13.524Z,29.07
2022-11-02T16:51:40.218Z,27.97
2022-11-02T16:54:28.126Z,10.33
2022-11-02T16:56:59.592Z,2.17
2022-11-02T16:59:26.302Z,1.50
2022-11-02T17:01:58.135Z,1.80
2022-11-02T17:04:27.211Z,2.13
2022-11-02T17:06:57.709Z,1.70
2022-11-02T17:09:30.585Z,2.53
2022-11-02T17:12:00.310Z,5.27
2022-11-02T17:14:28.480Z,2.27
2022-11-02T17:17:08.325Z,1.70
2022-11-02T17:19:37.830Z,1.73
2022-11-02T17:22:10.965Z,1.57
2022-11-02T17:24:37.707Z,1.30
2022-11-02T17:27:27.171Z,1.50
2022-11-02T17:29:56.953Z,1.60
2022-11-02T17:32:23.513Z,1.90
2022-11-02T17:34:55.984Z,2.03
2022-11-02T17:37:31.105Z,1.40
2022-11-02T17:40:01.552Z,1.60
2022-11-02T17:42:47.875Z,1.40
2022-11-02T17:45:31.611Z,1.20
2022-11-02T17:47:59.450Z,2.20
2022-11-02T17:50:27.855Z,2.07
2022-11-02T17:52:55.179Z,2.17
2022-11-02T17:55:27.679Z,2.63
2022-11-02T17:57:55.541Z,2.10
2022-11-02T18:00:23.233Z,2.40
2022-11-02T18:02:55.713Z,7.37
2022-11-02T18:05:24.158Z,3.67
2022-11-02T18:07:51.331Z,3.20
2022-11-02T18:10:19.504Z,2.30
2022-11-02T18:12:46.072Z,2.50
2022-11-02T18:15:19.347Z,2.47
2022-11-02T18:17:46.100Z,2.17
2022-11-02T18:20:14.057Z,2.20
2022-11-02T18:22:40.789Z,2.13
2022-11-02T18:25:10.487Z,2.10
2022-11-02T18:27:38.420Z,3.00
2022-11-02T18:30:07.341Z,2.00
2022-11-02T18:32:37.505Z,2.17
2022-11-02T18:35:08.697Z,1.93
2022-11-02T18:37:35.204Z,2.83
2022-11-02T18:40:01.712Z,2.73
2022-11-02T18:42:28.091Z,4.17
2022-11-02T18:44:54.594Z,3.67
2022-11-02T18:47:21.140Z,3.90
2022-11-02T18:49:47.630Z,4.00
2022-11-02T18:52:19.721Z,4.23
2022-11-02T18:54:48.823Z,3.00
2022-11-02T18:57:15.231Z,3.40
2022-11-02T18:59:41.742Z,2.53
2022-11-02T19:02:10.311Z,2.43
2022-11-02T19:04:37.022Z,2.83
2022-11-02T19:07:22.410Z,2.90
2022-11-02T19:09:49.075Z,2.27
2022-11-02T19:12:19.991Z,2.83
2022-11-02T19:14:49.533Z,2.60
2022-11-02T19:17:16.039Z,2.80
2022-11-02T19:19:45.165Z,3.07
2022-11-02T19:22:13.213Z,3.27
2022-11-02T19:24:40.054Z,3.43
2022-11-02T19:27:06.984Z,4.63
2022-11-02T19:29:36.208Z,5.33
2022-11-02T19:32:02.705Z,4.50
2022-11-02T19:34:29.226Z,3.73
2022-11-02T19:36:55.713Z,3.37
2022-11-02T19:39:22.184Z,3.70
2022-11-02T19:41:51.900Z,3.50
2022-11-02T19:44:18.672Z,3.57
2022-11-02T19:46:45.898Z,3.47
2022-11-02T19:49:12.664Z,3.13
2022-11-02T19:51:39.758Z,3.50
2022-11-02T19:54:06.667Z,3.10
2022-11-02T19:56:35.367Z,2.77
2022-11-02T19:59:02.199Z,2.63
2022-11-02T20:01:38.554Z,2.63
2022-11-02T20:04:06.042Z,2.90
2022-11-02T20:06:35.860Z,2.57
2022-11-02T20:09:05.586Z,3.17
2022-11-02T20:11:33.965Z,3.10
2022-11-02T20:14:02.406Z,2.93
2022-11-02T20:16:29.708Z,2.47
2022-11-02T20:18:56.597Z,2.83
2022-11-02T20:21:33.301Z,2.97
2022-11-02T20:24:02.847Z,3.27
2022-11-02T20:26:34.371Z,3.00
2022-11-02T20:29:03.216Z,3.30
2022-11-02T20:31:32.673Z,3.60
2022-11-02T20:34:00.858Z,3.03
2022-11-02T20:36:28.636Z,3.10
2022-11-02T20:38:56.577Z,2.53
2022-11-02T20:41:24.433Z,2.67
2022-11-02T20:43:52.886Z,3.03
2022-11-02T20:46:47.417Z,2.73
2022-11-02T20:49:21.749Z,2.80
2022-11-02T20:51:56.686Z,2.70
2022-11-02T20:54:25.166Z,2.80
2022-11-02T20:56:52.247Z,2.70
2022-11-02T20:59:18.781Z,2.67
2022-11-02T21:01:45.999Z,3.23
2022-11-02T21:04:18.633Z,3.20
2022-11-02T21:06:47.337Z,3.20
2022-11-02T21:09:14.924Z,3.30
2022-11-02T21:11:59.906Z,3.00
2022-11-02T21:14:26.432Z,2.90
2022-11-02T21:16:54.127Z,2.53
2022-11-02T21:19:20.644Z,3.40
2022-11-02T21:21:47.248Z,3.10
2022-11-02T21:24:13.946Z,3.33
2022-11-02T21:26:43.370Z,3.50
2022-11-02T21:29:09.853Z,3.77
2022-11-02T21:31:36.941Z,3.70
2022-11-02T21:34:03.553Z,3.47
2022-11-02T21:36:30.332Z,3.10
2022-11-02T21:38:59.046Z,3.13
2022-11-02T21:41:28.630Z,3.40
2022-11-02T21:43:55.829Z,3.10
2022-11-02T21:46:24.224Z,3.50
2022-11-02T21:48:50.974Z,3.43
2022-11-02T21:51:20.970Z,3.07
2022-11-02T21:53:48.968Z,2.90
2022-11-02T21:56:21.794Z,3.70
2022-11-02T21:58:49.058Z,3.23
2022-11-02T22:01:40.135Z,3.83
2022-11-02T22:04:07.809Z,3.97
2022-11-02T22:06:34.946Z,4.23
2022-11-02T22:09:02.124Z,3.47
2022-11-02T22:11:29.182Z,4.37
2022-11-02T22:13:58.143Z,3.83
2022-11-02T22:16:32.071Z,3.23
2022-11-02T22:19:08.438Z,5.83
2022-11-02T22:21:37.495Z,7.03
2022-11-02T22:24:05.279Z,4.80
2022-11-02T22:26:33.346Z,4.50
2022-11-02T22:29:03.257Z,4.63
2022-11-02T22:31:35.836Z,5.40
2022-11-02T22:34:04.775Z,4.07
2022-11-02T22:36:33.748Z,4.30
2022-11-02T22:39:01.883Z,3.70
2022-11-02T22:41:34.982Z,3.30
2022-11-02T22:44:10.393Z,4.10
2022-11-02T22:46:40.075Z,4.43
2022-11-02T22:49:08.479Z,3.97
2022-11-02T22:51:39.220Z,4.10
2022-11-02T22:54:08.468Z,4.23
2022-11-02T22:56:36.364Z,4.57
2022-11-02T22:59:04.104Z,4.77
2022-11-02T23:01:31.542Z,4.73
2022-11-02T23:03:59.032Z,4.97
2022-11-02T23:06:26.085Z,4.70
2022-11-02T23:08:54.504Z,4.60
2022-11-02T23:11:24.444Z,4.87
2022-11-02T23:14:11.782Z,4.60
2022-11-02T23:16:42.087Z,4.03
2022-11-02T23:19:28.258Z,4.50
2022-11-02T23:22:17.051Z,3.50
2022-11-02T23:25:18.150Z,3.87
2022-11-02T23:28:06.010Z,4.13
2022-11-02T23:30:56.781Z,3.67
2022-11-02T23:33:28.585Z,4.27
2022-11-02T23:36:13.940Z,4.50
2022-11-02T23:39:06.850Z,4.20
2022-11-02T23:41:35.412Z,4.10
2022-11-02T23:44:14.531Z,3.73
2022-11-02T23:46:43.073Z,3.80
2022-11-02T23:49:11.982Z,3.37
2022-11-02T23:51:57.258Z,3.90
2022-11-02T23:54:42.765Z,3.97
2022-11-02T23:57:09.231Z,4.10
2022-11-02T23:59:35.906Z,3.60
